createdAt,value
2024-01-15T00:03:26.884Z,44.55
2024-01-15T00:08:23.484Z,44.80
2024-01-15T00:13:19.937Z,45.80
2024-01-15T00:18:16.459Z,46.90
2024-01-15T00:23:13.057Z,42.90
2024-01-15T00:28:09.520Z,44.17
2024-01-15T00:33:06.110Z,45.08
2024-01-15T00:38:02.617Z,43.17
2024-01-15T00:42:59.002Z,44.03
2024-01-15T00:47:57.682Z,33.03
2024-01-15T00:57:50.703Z,34.97
2024-01-15T01:02:47.253Z,28.75
2024-01-15T01:07:43.760Z,36.88
2024-01-15T01:12:40.237Z,28.98
2024-01-15T01:17:37.229Z,19.55
2024-01-15T01:22:33.729Z,24.80
2024-01-15T01:27:30.192Z,21.45
2024-01-15T01:32:26.656Z,24.60
2024-01-15T01:37:23.231Z,20.33
2024-01-15T01:42:19.778Z,20.63
2024-01-15T01:47:16.392Z,20.80
2024-01-15T01:52:14.895Z,25.60
2024-01-15T01:57:13.015Z,19.23
2024-01-15T02:02:09.503Z,31.00
2024-01-15T02:07:06.383Z,18.75
2024-01-15T02:12:03.535Z,24.17
2024-01-15T02:17:00.179Z,26.60
2024-01-15T02:21:56.737Z,20.88
2024-01-15T02:26:53.243Z,25.00
2024-01-15T02:31:49.817Z,35.13
2024-01-15T02:36:46.802Z,29.30
2024-01-15T02:41:43.304Z,22.85
2024-01-15T02:46:39.715Z,18.80
2024-01-15T02:51:36.722Z,23.75
2024-01-15T02:56:33.262Z,22.83
2024-01-15T03:01:29.699Z,14.77
2024-01-15T03:06:26.218Z,20.70
2024-01-15T03:11:23.301Z,22.02
2024-01-15T03:16:21.060Z,23.30
2024-01-15T03:21:17.568Z,24.35
2024-01-15T03:26:14.093Z,23.75
2024-01-15T03:31:10.616Z,23.63
2024-01-15T03:36:07.708Z,32.22
2024-01-15T03:41:04.307Z,24.55
2024-01-15T03:46:00.872Z,26.45
2024-01-15T03:50:57.312Z,28.52
2024-01-15T03:55:53.689Z,18.05
2024-01-15T04:00:50.306Z,23.50
2024-01-15T04:05:46.849Z,19.45
2024-01-15T04:10:43.291Z,23.25
2024-01-15T04:15:39.736Z,20.30
2024-01-15T04:20:36.162Z,14.85
2024-01-15T04:25:33.037Z,18.05
2024-01-15T04:30:29.614Z,22.95
2024-01-15T04:35:26.174Z,22.10
2024-01-15T04:40:22.663Z,16.02
2024-01-15T04:45:19.850Z,21.45
2024-01-15T04:50:16.641Z,16.05
2024-01-15T04:55:13.117Z,19.33
2024-01-15T05:00:10.187Z,17.67
2024-01-15T05:05:06.844Z,19.33
2024-01-15T05:10:03.851Z,23.25
2024-01-15T05:15:00.417Z,27.38
2024-01-15T05:19:57.084Z,19.13
2024-01-15T05:24:53.774Z,17.50
2024-01-15T05:29:50.305Z,21.88
2024-01-15T05:34:46.983Z,21.15
2024-01-15T05:39:43.535Z,20.80
2024-01-15T05:44:39.994Z,22.27
2024-01-15T05:49:37.368Z,18.13
2024-01-15T05:54:34.369Z,22.33
2024-01-15T05:59:33.316Z,22.55
2024-01-15T06:04:29.885Z,22.38
2024-01-15T06:09:26.425Z,27.27
2024-01-15T06:14:22.874Z,24.48
2024-01-15T06:19:19.367Z,22.65
2024-01-15T06:24:16.754Z,16.15
2024-01-15T06:29:13.398Z,21.20
2024-01-15T06:34:10.022Z,21.58
2024-01-15T06:39:06.934Z,27.58
2024-01-15T06:44:03.577Z,19.33
2024-01-15T06:49:00.142Z,20.98
2024-01-15T06:53:56.665Z,22.38
2024-01-15T06:58:53.093Z,20.63
2024-01-15T07:03:50.124Z,14.40
2024-01-15T07:08:47.114Z,17.73
2024-01-15T07:13:43.511Z,19.75
2024-01-15T07:18:40.100Z,14.85
2024-01-15T07:23:36.562Z,11.52
2024-01-15T07:28:32.996Z,9.23
2024-01-15T07:33:29.561Z,21.60
2024-01-15T07:38:26.078Z,13.68
2024-01-15T07:43:23.952Z,15.30
2024-01-15T07:48:20.581Z,18.17
2024-01-15T07:53:17.089Z,17.60
2024-01-15T07:58:16.525Z,12.63
2024-01-15T08:03:14.127Z,18.73
2024-01-15T08:08:11.292Z,15.48
2024-01-15T08:13:09.410Z,11.13
2024-01-15T08:18:06.429Z,10.70
2024-01-15T08:23:03.413Z,10.30
2024-01-15T08:27:59.917Z,10.55
2024-01-15T08:32:58.480Z,10.43
2024-01-15T08:37:56.709Z,14.60
2024-01-15T08:42:53.165Z,12.88
2024-01-15T08:47:49.706Z,11.70
2024-01-15T08:52:47.420Z,8.27
2024-01-15T08:57:44.394Z,13.10
2024-01-15T09:02:40.977Z,11.20
2024-01-15T09:07:37.378Z,13.07
2024-01-15T09:12:33.840Z,15.63
2024-01-15T09:17:30.337Z,12.95
2024-01-15T09:22:27.028Z,11.63
2024-01-15T09:27:23.470Z,13.00
2024-01-15T09:32:19.886Z,16.15
2024-01-15T09:37:27.728Z,13.95
2024-01-15T09:42:32.789Z,19.33
2024-01-15T09:47:29.237Z,16.27
2024-01-15T09:52:26.405Z,18.33
2024-01-15T09:57:22.859Z,9.73
2024-01-15T10:02:20.144Z,8.20
2024-01-15T10:07:20.254Z,11.95
2024-01-15T10:12:17.196Z,9.20
2024-01-15T10:17:16.886Z,13.48
2024-01-15T10:22:14.676Z,26.58
2024-01-15T10:27:11.993Z,9.57
2024-01-15T10:32:09.963Z,10.57
2024-01-15T10:37:08.580Z,11.00
2024-01-15T10:42:05.386Z,10.48
2024-01-15T10:47:01.959Z,11.70
2024-01-15T10:51:58.599Z,14.63
2024-01-15T10:56:56.973Z,13.02
2024-01-15T11:01:55.659Z,18.48
2024-01-15T11:06:55.972Z,13.63
2024-01-15T11:12:14.047Z,8.88
2024-01-15T11:17:11.177Z,8.85
2024-01-15T11:22:12.839Z,9.68
2024-01-15T11:27:10.135Z,8.63
2024-01-15T11:32:11.025Z,8.88
2024-01-15T11:37:08.033Z,3.63
2024-01-15T11:42:06.470Z,6.00
2024-01-15T11:47:16.613Z,5.53
2024-01-15T11:52:20.007Z,5.03
2024-01-15T11:57:38.643Z,5.38
2024-01-15T12:02:35.546Z,8.23
2024-01-15T12:07:32.018Z,7.45
2024-01-15T12:12:46.868Z,6.72
2024-01-15T12:17:43.542Z,8.18
2024-01-15T12:22:53.204Z,3.30
2024-01-15T12:27:57.533Z,3.97
2024-01-15T12:32:54.095Z,4.00
2024-01-15T12:37:50.518Z,9.75
2024-01-15T12:42:47.059Z,5.60
2024-01-15T12:47:43.870Z,2.42
2024-01-15T12:52:43.845Z,12.48
2024-01-15T12:57:40.458Z,5.20
2024-01-15T13:02:36.949Z,4.85
2024-01-15T13:07:33.336Z,5.05
2024-01-15T13:12:29.822Z,5.38
2024-01-15T13:17:26.246Z,2.55
2024-01-15T13:22:24.413Z,7.88
2024-01-15T13:32:28.977Z,6.53
2024-01-15T13:37:28.689Z,6.13
2024-01-15T13:42:25.506Z,5.30
2024-01-15T13:47:22.075Z,5.38
2024-01-15T13:52:19.025Z,2.00
2024-01-15T13:57:15.869Z,8.95
2024-01-15T14:02:12.898Z,4.18
2024-01-15T14:07:10.390Z,7.83
2024-01-15T14:12:07.684Z,5.43
2024-01-15T14:17:05.037Z,3.35
2024-01-15T14:22:01.486Z,6.85
2024-01-15T14:26:58.195Z,5.55
2024-01-15T14:31:55.322Z,5.47
2024-01-15T14:36:54.197Z,12.85
2024-01-15T14:46:47.117Z,7.45
2024-01-15T14:51:45.872Z,4.47
2024-01-15T14:56:43.774Z,9.75
2024-01-15T15:01:41.290Z,5.30
2024-01-15T15:06:38.163Z,4.68
2024-01-15T15:11:34.666Z,7.72
2024-01-15T15:16:31.661Z,3.58
2024-01-15T15:21:29.767Z,3.50
2024-01-15T15:26:26.251Z,1.83
2024-01-15T15:31:22.789Z,2.35
2024-01-15T15:36:20.344Z,2.15
2024-01-15T15:41:16.894Z,9.73
2024-01-15T15:46:13.355Z,2.08
2024-01-15T15:51:10.240Z,5.03
2024-01-15T15:56:07.576Z,3.65
2024-01-15T16:01:04.491Z,5.18
2024-01-15T16:06:01.468Z,4.47
2024-01-15T16:10:58.847Z,5.72
2024-01-15T16:23:08.636Z,2.72
2024-01-15T16:23:35.539Z,4.38
2024-01-15T16:26:28.402Z,8.13
2024-01-15T16:31:25.115Z,8.02
2024-01-15T16:36:21.946Z,3.35
2024-01-15T16:41:18.868Z,5.40
2024-01-15T16:46:16.165Z,5.13
2024-01-15T16:51:13.176Z,11.32
2024-01-15T16:56:09.694Z,6.78
2024-01-15T17:01:08.877Z,5.05
2024-01-15T17:06:05.603Z,6.70
2024-01-15T17:11:02.625Z,5.50
2024-01-15T17:15:59.823Z,4.57
2024-01-15T17:20:56.366Z,5.18
2024-01-15T17:25:52.815Z,6.47
2024-01-15T17:30:50.209Z,4.88
2024-01-15T17:35:53.904Z,10.40
2024-01-15T17:40:50.886Z,7.95
2024-01-15T17:45:47.979Z,9.43
2024-01-15T17:50:44.634Z,2.78
2024-01-15T17:55:41.062Z,7.57
2024-01-15T18:00:37.966Z,12.18
2024-01-15T18:05:34.608Z,7.70
2024-01-15T18:10:31.044Z,8.30
2024-01-15T18:15:27.452Z,13.30
2024-01-15T18:20:23.951Z,8.95
2024-01-15T18:25:20.351Z,6.78
2024-01-15T18:30:16.941Z,4.55
2024-01-15T18:35:13.569Z,8.40
2024-01-15T18:40:11.561Z,6.85
2024-01-15T18:45:08.754Z,6.40
2024-01-15T18:50:05.854Z,6.97
2024-01-15T18:55:02.268Z,9.48
2024-01-15T18:59:58.655Z,7.65
2024-01-15T19:04:55.132Z,9.73
2024-01-15T19:09:51.616Z,6.43
2024-01-15T19:14:48.108Z,10.98
2024-01-15T19:19:50.354Z,8.50
2024-01-15T19:24:46.905Z,14.15
2024-01-15T19:29:43.431Z,14.30
2024-01-15T19:34:41.563Z,7.68
2024-01-15T19:39:37.965Z,5.67
2024-01-15T19:44:34.378Z,10.63
2024-01-15T19:49:30.790Z,9.50
2024-01-15T19:54:27.557Z,11.43
2024-01-15T19:59:23.933Z,5.38
2024-01-15T20:04:20.466Z,5.30
2024-01-15T20:09:16.924Z,3.97
2024-01-15T20:14:13.832Z,5.00
2024-01-15T20:19:10.535Z,4.20
2024-01-15T20:24:07.197Z,6.05
2024-01-15T20:29:04.057Z,4.22
2024-01-15T20:34:01.371Z,8.18
2024-01-15T20:38:58.357Z,6.50
2024-01-15T20:43:54.774Z,4.55
2024-01-15T20:48:51.490Z,7.43
2024-01-15T20:53:50.194Z,2.08
2024-01-15T20:58:46.715Z,6.57
2024-01-15T21:03:43.558Z,7.03
2024-01-15T21:08:42.162Z,4.50
2024-01-15T21:13:39.470Z,9.15
2024-01-15T21:18:36.011Z,1.63
2024-01-15T21:23:33.787Z,4.53
2024-01-15T21:28:31.275Z,2.20
2024-01-15T21:33:32.953Z,3.88
2024-01-15T21:38:29.692Z,4.90
2024-01-15T21:43:26.127Z,5.35
2024-01-15T21:48:22.596Z,4.25
2024-01-15T21:53:19.485Z,25.83
2024-01-15T21:58:15.907Z,6.18
2024-01-15T22:03:12.400Z,5.80
2024-01-15T22:08:08.840Z,3.90
2024-01-15T22:13:05.466Z,5.75
2024-01-15T22:18:03.949Z,4.47
2024-01-15T22:23:00.758Z,3.90
2024-01-15T22:27:57.270Z,4.38
2024-01-15T22:32:53.831Z,2.42
2024-01-15T22:37:50.307Z,4.30
2024-01-15T22:42:47.595Z,4.20
2024-01-15T22:47:44.161Z,6.97
2024-01-15T22:52:41.175Z,5.75
2024-01-15T22:57:37.878Z,2.80
2024-01-15T23:02:34.699Z,4.68
2024-01-15T23:07:31.495Z,3.03
2024-01-15T23:12:27.945Z,1.95
2024-01-15T23:17:24.463Z,8.57
2024-01-15T23:22:21.374Z,2.80
2024-01-15T23:27:17.811Z,6.63
2024-01-15T23:32:14.426Z,8.65
2024-01-15T23:37:10.863Z,7.63
2024-01-15T23:42:07.250Z,9.73
2024-01-15T23:47:04.333Z,4.63
2024-01-15T23:52:00.739Z,10.82
2024-01-15T23:56:58.860Z,8.85
